sensor_id;sensor_type;location;lat;lon;timestamp;pressure;altitude;pressure_sealevel;temperature;humidity
48668;BME280;34453;52.198;5.004;2022-08-21T00:01:05;101831.09;;;16.76;100.00
48668;BME280;34453;52.198;5.004;2022-08-21T00:03:32;101830.59;;;16.72;100.00
48668;BME280;34453;52.198;5.004;2022-08-21T00:05:57;101827.63;;;16.75;100.00
48668;BME280;34453;52.198;5.004;2022-08-21T00:08:23;101834.41;;;16.78;100.00
48668;BME280;34453;52.198;5.004;2022-08-21T00:10:49;101833.72;;;16.76;100.00
48668;BME280;34453;52.198;5.004;2022-08-21T00:13:16;101831.25;;;16.74;100.00
48668;BME280;34453;52.198;5.004;2022-08-21T00:15:42;101827.19;;;16.80;100.00
48668;BME280;34453;52.198;5.004;2022-08-21T00:18:09;101825.13;;;16.74;100.00
48668;BME280;34453;52.198;5.004;2022-08-21T00:20:37;101814.84;;;16.63;100.00
48668;BME280;34453;52.198;5.004;2022-08-21T00:23:03;101818.69;;;16.68;100.00
48668;BME280;34453;52.198;5.004;2022-08-21T00:25:28;101824.63;;;16.70;100.00
48668;BME280;34453;52.198;5.004;2022-08-21T00:27:54;101820.03;;;16.72;100.00
48668;BME280;34453;52.198;5.004;2022-08-21T00:30:22;101822.66;;;16.72;100.00
48668;BME280;34453;52.198;5.004;2022-08-21T00:32:47;101828.25;;;16.69;100.00
48668;BME280;34453;52.198;5.004;2022-08-21T00:35:16;101820.50;;;16.68;100.00
48668;BME280;34453;52.198;5.004;2022-08-21T00:37:42;101819.50;;;16.69;100.00
48668;BME280;34453;52.198;5.004;2022-08-21T00:40:13;101811.75;;;16.75;100.00
48668;BME280;34453;52.198;5.004;2022-08-21T00:42:39;101810.28;;;16.73;100.00
48668;BME280;34453;52.198;5.004;2022-08-21T00:45:06;101812.09;;;16.72;100.00
48668;BME280;34453;52.198;5.004;2022-08-21T00:47:31;101819.66;;;16.67;100.00
48668;BME280;34453;52.198;5.004;2022-08-21T00:49:57;101814.88;;;16.71;100.00
48668;BME280;34453;52.198;5.004;2022-08-21T00:52:28;101808.44;;;16.65;100.00
48668;BME280;34453;52.198;5.004;2022-08-21T00:54:56;101810.91;;;16.67;100.00
48668;BME280;34453;52.198;5.004;2022-08-21T00:57:27;101811.53;;;16.61;100.00
48668;BME280;34453;52.198;5.004;2022-08-21T00:59:56;101803.44;;;16.62;100.00
48668;BME280;34453;52.198;5.004;2022-08-21T01:02:23;101804.91;;;16.56;100.00
48668;BME280;34453;52.198;5.004;2022-08-21T01:04:49;101798.28;;;16.52;100.00
48668;BME280;34453;52.198;5.004;2022-08-21T01:07:15;101802.94;;;16.58;100.00
48668;BME280;34453;52.198;5.004;2022-08-21T01:09:40;101806.56;;;16.57;100.00
48668;BME280;34453;52.198;5.004;2022-08-21T01:12:07;101812.00;;;16.56;100.00
48668;BME280;34453;52.198;5.004;2022-08-21T01:14:33;101813.59;;;16.49;100.00
48668;BME280;34453;52.198;5.004;2022-08-21T01:17:00;101818.22;;;16.47;100.00
48668;BME280;34453;52.198;5.004;2022-08-21T01:19:28;101815.38;;;16.40;100.00
48668;BME280;34453;52.198;5.004;2022-08-21T01:21:54;101813.41;;;16.42;100.00
48668;BME280;34453;52.198;5.004;2022-08-21T01:24:20;101814.53;;;16.40;100.00
48668;BME280;34453;52.198;5.004;2022-08-21T01:26:48;101808.75;;;16.36;100.00
48668;BME280;34453;52.198;5.004;2022-08-21T01:29:42;101810.06;;;16.32;100.00
48668;BME280;34453;52.198;5.004;2022-08-21T01:32:12;101824.28;;;16.39;100.00
48668;BME280;34453;52.198;5.004;2022-08-21T01:34:40;101824.28;;;16.39;100.00
48668;BME280;34453;52.198;5.004;2022-08-21T01:37:06;101819.47;;;16.34;100.00
48668;BME280;34453;52.198;5.004;2022-08-21T01:39:32;101823.28;;;16.40;100.00
48668;BME280;34453;52.198;5.004;2022-08-21T01:41:58;101818.84;;;16.41;100.00
48668;BME280;34453;52.198;5.004;2022-08-21T01:44:24;101821.25;;;16.34;100.00
48668;BME280;34453;52.198;5.004;2022-08-21T01:46:50;101815.63;;;16.29;100.00
48668;BME280;34453;52.198;5.004;2022-08-21T01:49:16;101804.94;;;16.30;100.00
48668;BME280;34453;52.198;5.004;2022-08-21T01:51:42;101810.97;;;16.23;100.00
48668;BME280;34453;52.198;5.004;2022-08-21T01:54:07;101816.91;;;16.25;100.00
48668;BME280;34453;52.198;5.004;2022-08-21T01:56:42;101812.63;;;16.24;100.00
48668;BME280;34453;52.198;5.004;2022-08-21T01:59:08;101812.31;;;16.27;100.00
48668;BME280;34453;52.198;5.004;2022-08-21T02:01:34;101806.69;;;16.22;100.00
48668;BME280;34453;52.198;5.004;2022-08-21T02:03:59;101800.03;;;16.17;100.00
48668;BME280;34453;52.198;5.004;2022-08-21T02:06:26;101800.72;;;16.20;100.00
48668;BME280;34453;52.198;5.004;2022-08-21T02:08:52;101797.72;;;16.14;100.00
48668;BME280;34453;52.198;5.004;2022-08-21T02:11:18;101800.88;;;16.18;100.00
48668;BME280;34453;52.198;5.004;2022-08-21T02:13:44;101790.78;;;16.13;100.00
48668;BME280;34453;52.198;5.004;2022-08-21T02:16:09;101800.66;;;16.11;100.00
48668;BME280;34453;52.198;5.004;2022-08-21T02:18:35;101791.09;;;16.10;100.00
48668;BME280;34453;52.198;5.004;2022-08-21T02:21:01;101796.88;;;16.14;100.00
48668;BME280;34453;52.198;5.004;2022-08-21T02:23:27;101798.00;;;16.11;100.00
48668;BME280;34453;52.198;5.004;2022-08-21T02:25:54;101796.38;;;16.10;100.00
48668;BME280;34453;52.198;5.004;2022-08-21T02:28:20;101794.69;;;16.09;100.00
48668;BME280;34453;52.198;5.004;2022-08-21T02:30:47;101787.72;;;16.00;100.00
48668;BME280;34453;52.198;5.004;2022-08-21T02:33:13;101792.38;;;16.06;100.00
48668;BME280;34453;52.198;5.004;2022-08-21T02:35:40;101788.69;;;15.99;100.00
48668;BME280;34453;52.198;5.004;2022-08-21T02:38:11;101792.97;;;16.00;100.00
48668;BME280;34453;52.198;5.004;2022-08-21T02:40:39;101791.63;;;15.96;100.00
48668;BME280;34453;52.198;5.004;2022-08-21T02:43:06;101790.13;;;15.93;100.00
48668;BME280;34453;52.198;5.004;2022-08-21T02:45:32;101787.28;;;15.87;100.00
48668;BME280;34453;52.198;5.004;2022-08-21T02:48:03;101790.00;;;15.95;100.00
48668;BME280;34453;52.198;5.004;2022-08-21T02:50:33;101797.81;;;15.87;100.00
48668;BME280;34453;52.198;5.004;2022-08-21T02:52:59;101784.63;;;15.87;100.00
48668;BME280;34453;52.198;5.004;2022-08-21T02:55:26;101796.88;;;15.88;100.00
48668;BME280;34453;52.198;5.004;2022-08-21T02:57:56;101781.31;;;15.85;100.00
48668;BME280;34453;52.198;5.004;2022-08-21T03:00:24;101784.63;;;15.87;100.00
48668;BME280;34453;52.198;5.004;2022-08-21T03:02:50;101783.06;;;15.76;100.00
48668;BME280;34453;52.198;5.004;2022-08-21T03:05:17;101784.59;;;15.79;100.00
48668;BME280;34453;52.198;5.004;2022-08-21T03:07:44;101782.22;;;15.75;100.00
48668;BME280;34453;52.198;5.004;2022-08-21T03:10:10;101776.28;;;15.73;100.00
48668;BME280;34453;52.198;5.004;2022-08-21T03:12:36;101777.28;;;15.72;100.00
48668;BME280;34453;52.198;5.004;2022-08-21T03:15:06;101774.63;;;15.72;100.00
48668;BME280;34453;52.198;5.004;2022-08-21T03:17:33;101772.25;;;15.69;100.00
48668;BME280;34453;52.198;5.004;2022-08-21T03:19:59;101765.78;;;15.64;100.00
48668;BME280;34453;52.198;5.004;2022-08-21T03:22:26;101763.16;;;15.64;100.00
48668;BME280;34453;52.198;5.004;2022-08-21T03:24:52;101755.09;;;15.65;100.00
48668;BME280;34453;52.198;5.004;2022-08-21T03:27:18;101757.41;;;15.68;100.00
48668;BME280;34453;52.198;5.004;2022-08-21T03:29:44;101768.28;;;15.65;100.00
48668;BME280;34453;52.198;5.004;2022-08-21T03:32:09;101748.91;;;15.57;100.00
48668;BME280;34453;52.198;5.004;2022-08-21T03:34:38;101757.34;;;15.60;100.00
48668;BME280;34453;52.198;5.004;2022-08-21T03:37:05;101753.75;;;15.61;100.00
48668;BME280;34453;52.198;5.004;2022-08-21T03:39:32;101756.38;;;15.61;100.00
48668;BME280;34453;52.198;5.004;2022-08-21T03:41:57;101757.88;;;15.64;100.00
48668;BME280;34453;52.198;5.004;2022-08-21T03:44:24;101762.03;;;15.66;100.00
48668;BME280;34453;52.198;5.004;2022-08-21T03:46:49;101757.75;;;15.65;100.00
48668;BME280;34453;52.198;5.004;2022-08-21T03:49:15;101754.03;;;15.58;100.00
48668;BME280;34453;52.198;5.004;2022-08-21T03:51:40;101753.34;;;15.56;100.00
48668;BME280;34453;52.198;5.004;2022-08-21T03:54:05;101744.09;;;15.52;100.00
48668;BME280;34453;52.198;5.004;2022-08-21T03:56:31;101744.94;;;15.52;100.00
48668;BME280;34453;52.198;5.004;2022-08-21T03:58:57;101749.22;;;15.53;100.00
48668;BME280;34453;52.198;5.004;2022-08-21T04:01:22;101740.94;;;15.48;100.00
48668;BME280;34453;52.198;5.004;2022-08-21T04:03:48;101747.56;;;15.52;100.00
48668;BME280;34453;52.198;5.004;2022-08-21T04:06:13;101755.25;;;15.46;100.00
48668;BME280;34453;52.198;5.004;2022-08-21T04:08:38;101749.97;;;15.46;100.00
48668;BME280;34453;52.198;5.004;2022-08-21T04:11:05;101755.25;;;15.46;100.00
48668;BME280;34453;52.198;5.004;2022-08-21T04:13:30;101752.25;;;15.41;100.00
48668;BME280;34453;52.198;5.004;2022-08-21T04:15:57;101754.03;;;15.40;100.00
48668;BME280;34453;52.198;5.004;2022-08-21T04:18:23;101754.19;;;15.39;100.00
48668;BME280;34453;52.198;5.004;2022-08-21T04:20:51;101764.75;;;15.39;100.00
48668;BME280;34453;52.198;5.004;2022-08-21T04:23:21;101755.03;;;15.39;100.00
48668;BME280;34453;52.198;5.004;2022-08-21T04:25:47;101759.47;;;15.39;100.00
48668;BME280;34453;52.198;5.004;2022-08-21T04:28:12;101763.38;;;15.34;100.00
48668;BME280;34453;52.198;5.004;2022-08-21T04:30:37;101763.44;;;15.25;100.00
48668;BME280;34453;52.198;5.004;2022-08-21T04:33:03;101769.69;;;15.24;100.00
48668;BME280;34453;52.198;5.004;2022-08-21T04:35:29;101773.75;;;15.18;100.00
48668;BME280;34453;52.198;5.004;2022-08-21T04:37:55;101775.69;;;15.16;100.00
48668;BME280;34453;52.198;5.004;2022-08-21T04:40:23;101775.13;;;15.22;100.00
48668;BME280;34453;52.198;5.004;2022-08-21T04:42:51;101773.06;;;15.16;100.00
48668;BME280;34453;52.198;5.004;2022-08-21T04:45:30;101780.81;;;15.18;100.00
48668;BME280;34453;52.198;5.004;2022-08-21T04:47:57;101783.31;;;15.19;100.00
48668;BME280;34453;52.198;5.004;2022-08-21T04:50:30;101781.66;;;15.18;100.00
48668;BME280;34453;52.198;5.004;2022-08-21T04:53:00;101781.50;;;15.20;100.00
48668;BME280;34453;52.198;5.004;2022-08-21T04:55:25;101779.63;;;15.12;100.00
48668;BME280;34453;52.198;5.004;2022-08-21T04:57:53;101784.59;;;15.15;100.00
48668;BME280;34453;52.198;5.004;2022-08-21T05:00:20;101789.03;;;15.15;100.00
48668;BME280;34453;52.198;5.004;2022-08-21T05:02:46;101776.94;;;15.22;100.00
48668;BME280;34453;52.198;5.004;2022-08-21T05:05:13;101790.94;;;15.22;100.00
48668;BME280;34453;52.198;5.004;2022-08-21T05:07:39;101790.84;;;15.14;100.00
48668;BME280;34453;52.198;5.004;2022-08-21T05:10:05;101787.91;;;15.17;100.00
48668;BME280;34453;52.198;5.004;2022-08-21T05:12:33;101784.00;;;15.21;100.00
48668;BME280;34453;52.198;5.004;2022-08-21T05:14:59;101784.97;;;15.20;100.00
48668;BME280;34453;52.198;5.004;2022-08-21T05:17:25;101789.88;;;15.15;100.00
48668;BME280;34453;52.198;5.004;2022-08-21T05:19:50;101792.88;;;15.20;100.00
48668;BME280;34453;52.198;5.004;2022-08-21T05:22:22;101793.19;;;15.17;100.00
48668;BME280;34453;52.198;5.004;2022-08-21T05:24:50;101792.75;;;15.22;100.00
48668;BME280;34453;52.198;5.004;2022-08-21T05:27:16;101793.13;;;15.27;100.00
48668;BME280;34453;52.198;5.004;2022-08-21T05:29:42;101797.88;;;15.23;100.00
48668;BME280;34453;52.198;5.004;2022-08-21T05:32:11;101807.81;;;15.29;100.00
48668;BME280;34453;52.198;5.004;2022-08-21T05:34:37;101801.63;;;15.21;100.00
48668;BME280;34453;52.198;5.004;2022-08-21T05:37:02;101798.00;;;15.22;100.00
48668;BME280;34453;52.198;5.004;2022-08-21T05:39:28;101802.97;;;15.25;100.00
48668;BME280;34453;52.198;5.004;2022-08-21T05:41:53;101796.97;;;15.32;100.00
48668;BME280;34453;52.198;5.004;2022-08-21T05:44:18;101797.81;;;15.33;100.00
48668;BME280;34453;52.198;5.004;2022-08-21T05:46:44;101799.03;;;15.39;100.00
48668;BME280;34453;52.198;5.004;2022-08-21T05:49:10;101797.94;;;15.31;100.00
48668;BME280;34453;52.198;5.004;2022-08-21T05:51:36;101804.66;;;15.44;100.00
48668;BME280;34453;52.198;5.004;2022-08-21T05:54:02;101809.63;;;15.47;100.00
48668;BME280;34453;52.198;5.004;2022-08-21T05:56:28;101808.81;;;15.46;100.00
48668;BME280;34453;52.198;5.004;2022-08-21T05:58:53;101799.63;;;15.50;100.00
48668;BME280;34453;52.198;5.004;2022-08-21T06:01:19;101801.94;;;15.53;100.00
48668;BME280;34453;52.198;5.004;2022-08-21T06:03:45;101800.53;;;15.59;100.00
48668;BME280;34453;52.198;5.004;2022-08-21T06:06:10;101801.50;;;15.58;100.00
48668;BME280;34453;52.198;5.004;2022-08-21T06:08:36;101795.94;;;15.61;100.00
48668;BME280;34453;52.198;5.004;2022-08-21T06:11:03;101811.13;;;15.77;100.00
48668;BME280;34453;52.198;5.004;2022-08-21T06:13:29;101798.63;;;15.69;100.00
48668;BME280;34453;52.198;5.004;2022-08-21T06:16:12;101797.38;;;15.73;100.00
48668;BME280;34453;52.198;5.004;2022-08-21T06:18:38;101795.66;;;15.82;100.00
48668;BME280;34453;52.198;5.004;2022-08-21T06:21:05;101794.22;;;15.88;100.00
48668;BME280;34453;52.198;5.004;2022-08-21T06:23:31;101791.81;;;15.94;100.00
48668;BME280;34453;52.198;5.004;2022-08-21T06:25:56;101790.88;;;16.04;100.00
48668;BME280;34453;52.198;5.004;2022-08-21T06:28:22;101788.38;;;16.02;100.00
48668;BME280;34453;52.198;5.004;2022-08-21T06:30:47;101796.06;;;16.13;100.00
48668;BME280;34453;52.198;5.004;2022-08-21T06:33:13;101791.44;;;16.15;100.00
48668;BME280;34453;52.198;5.004;2022-08-21T06:35:38;101793.63;;;16.20;100.00
48668;BME280;34453;52.198;5.004;2022-08-21T06:38:04;101791.50;;;16.24;100.00
48668;BME280;34453;52.198;5.004;2022-08-21T06:40:30;101792.22;;;16.34;100.00
48668;BME280;34453;52.198;5.004;2022-08-21T06:42:57;101790.47;;;16.43;100.00
48668;BME280;34453;52.198;5.004;2022-08-21T06:45:24;101788.88;;;16.50;100.00
48668;BME280;34453;52.198;5.004;2022-08-21T06:47:49;101790.38;;;16.52;100.00
48668;BME280;34453;52.198;5.004;2022-08-21T06:50:15;101795.22;;;16.65;100.00
48668;BME280;34453;52.198;5.004;2022-08-21T06:52:40;101789.28;;;16.71;100.00
48668;BME280;34453;52.198;5.004;2022-08-21T06:55:09;101796.28;;;16.81;100.00
48668;BME280;34453;52.198;5.004;2022-08-21T06:57:35;101792.69;;;16.82;100.00
48668;BME280;34453;52.198;5.004;2022-08-21T07:00:03;101786.38;;;16.83;100.00
48668;BME280;34453;52.198;5.004;2022-08-21T07:02:29;101781.66;;;16.94;100.00
48668;BME280;34453;52.198;5.004;2022-08-21T07:04:55;101788.59;;;16.95;100.00
48668;BME280;34453;52.198;5.004;2022-08-21T07:07:20;101774.75;;;17.02;100.00
48668;BME280;34453;52.198;5.004;2022-08-21T07:09:45;101790.63;;;17.18;100.00
48668;BME280;34453;52.198;5.004;2022-08-21T07:12:11;101790.34;;;17.21;100.00
48668;BME280;34453;52.198;5.004;2022-08-21T07:14:37;101798.44;;;17.28;100.00
48668;BME280;34453;52.198;5.004;2022-08-21T07:17:02;101790.69;;;17.34;100.00
48668;BME280;34453;52.198;5.004;2022-08-21T07:19:28;101785.72;;;17.39;100.00
48668;BME280;34453;52.198;5.004;2022-08-21T07:21:58;101786.56;;;17.48;100.00
48668;BME280;34453;52.198;5.004;2022-08-21T07:24:25;101798.31;;;17.62;100.00
48668;BME280;34453;52.198;5.004;2022-08-21T07:26:51;101789.56;;;17.61;100.00
48668;BME280;34453;52.198;5.004;2022-08-21T07:29:16;101790.06;;;17.73;100.00
48668;BME280;34453;52.198;5.004;2022-08-21T07:31:42;101789.75;;;17.85;100.00
48668;BME280;34453;52.198;5.004;2022-08-21T07:34:08;101792.91;;;17.88;100.00
48668;BME280;34453;52.198;5.004;2022-08-21T07:36:33;101791.09;;;17.97;100.00
48668;BME280;34453;52.198;5.004;2022-08-21T07:38:59;101791.56;;;18.17;100.00
48668;BME280;34453;52.198;5.004;2022-08-21T07:41:27;101795.03;;;18.26;100.00
48668;BME280;34453;52.198;5.004;2022-08-21T07:43:55;101800.31;;;18.26;100.00
48668;BME280;34453;52.198;5.004;2022-08-21T07:46:22;101805.94;;;18.39;100.00
48668;BME280;34453;52.198;5.004;2022-08-21T07:48:48;101805.56;;;18.42;100.00
48668;BME280;34453;52.198;5.004;2022-08-21T07:51:16;101799.25;;;18.51;100.00
48668;BME280;34453;52.198;5.004;2022-08-21T07:53:47;101800.38;;;18.65;100.00
48668;BME280;34453;52.198;5.004;2022-08-21T07:56:13;101789.09;;;18.71;100.00
48668;BME280;34453;52.198;5.004;2022-08-21T07:58:38;101786.28;;;18.64;100.00
48668;BME280;34453;52.198;5.004;2022-08-21T08:01:05;101782.97;;;18.79;100.00
48668;BME280;34453;52.198;5.004;2022-08-21T08:03:31;101781.59;;;18.83;100.00
48668;BME280;34453;52.198;5.004;2022-08-21T08:05:57;101781.75;;;18.90;100.00
48668;BME280;34453;52.198;5.004;2022-08-21T08:08:23;101791.47;;;19.05;100.00
48668;BME280;34453;52.198;5.004;2022-08-21T08:10:49;101785.44;;;19.12;100.00
48668;BME280;34453;52.198;5.004;2022-08-21T08:13:15;101786.66;;;19.32;100.00
48668;BME280;34453;52.198;5.004;2022-08-21T08:15:40;101776.63;;;19.42;100.00
48668;BME280;34453;52.198;5.004;2022-08-21T08:18:05;101792.50;;;19.51;100.00
48668;BME280;34453;52.198;5.004;2022-08-21T08:20:31;101782.66;;;19.59;100.00
48668;BME280;34453;52.198;5.004;2022-08-21T08:22:57;101779.44;;;19.72;100.00
48668;BME280;34453;52.198;5.004;2022-08-21T08:25:24;101785.47;;;19.81;100.00
48668;BME280;34453;52.198;5.004;2022-08-21T08:27:50;101777.88;;;19.78;100.00
48668;BME280;34453;52.198;5.004;2022-08-21T08:30:17;101784.09;;;19.70;100.00
48668;BME280;34453;52.198;5.004;2022-08-21T08:32:43;101776.81;;;19.64;100.00
48668;BME280;34453;52.198;5.004;2022-08-21T08:35:10;101780.53;;;19.55;100.00
48668;BME280;34453;52.198;5.004;2022-08-21T08:37:38;101782.66;;;19.82;100.00
48668;BME280;34453;52.198;5.004;2022-08-21T08:40:06;101764.31;;;20.11;100.00
48668;BME280;34453;52.198;5.004;2022-08-21T08:42:34;101750.47;;;20.15;100.00
48668;BME280;34453;52.198;5.004;2022-08-21T08:45:16;101760.91;;;20.02;100.00
48668;BME280;34453;52.198;5.004;2022-08-21T08:47:45;101760.97;;;19.94;100.00
48668;BME280;34453;52.198;5.004;2022-08-21T08:50:18;101753.84;;;20.09;100.00
48668;BME280;34453;52.198;5.004;2022-08-21T08:52:53;101756.16;;;20.42;100.00
48668;BME280;34453;52.198;5.004;2022-08-21T08:55:23;101748.00;;;20.58;100.00
48668;BME280;34453;52.198;5.004;2022-08-21T08:57:53;101738.53;;;20.41;100.00
48668;BME280;34453;52.198;5.004;2022-08-21T09:00:21;101752.78;;;20.33;100.00
48668;BME280;34453;52.198;5.004;2022-08-21T09:02:51;101751.94;;;20.33;100.00
48668;BME280;34453;52.198;5.004;2022-08-21T09:05:25;101746.16;;;20.29;100.00
48668;BME280;34453;52.198;5.004;2022-08-21T09:08:21;101747.53;;;20.55;100.00
48668;BME280;34453;52.198;5.004;2022-08-21T09:14:41;101744.13;;;20.76;100.00
48668;BME280;34453;52.198;5.004;2022-08-21T09:20:14;101745.44;;;20.65;100.00
48668;BME280;34453;52.198;5.004;2022-08-21T09:25:34;101750.84;;;21.08;100.00
48668;BME280;34453;52.198;5.004;2022-08-21T09:28:09;101749.25;;;20.92;100.00
48668;BME280;34453;52.198;5.004;2022-08-21T09:30:39;101742.13;;;20.63;100.00
48668;BME280;34453;52.198;5.004;2022-08-21T09:33:05;101748.09;;;20.50;100.00
48668;BME280;34453;52.198;5.004;2022-08-21T09:35:31;101750.56;;;20.66;100.00
48668;BME280;34453;52.198;5.004;2022-08-21T09:38:06;101750.72;;;20.80;100.00
48668;BME280;34453;52.198;5.004;2022-08-21T09:40:42;101733.16;;;20.79;100.00
48668;BME280;34453;52.198;5.004;2022-08-21T09:45:37;101733.91;;;20.94;100.00
48668;BME280;34453;52.198;5.004;2022-08-21T09:48:09;101735.84;;;21.22;100.00
48668;BME280;34453;52.198;5.004;2022-08-21T09:50:35;101725.03;;;21.45;100.00
48668;BME280;34453;52.198;5.004;2022-08-21T09:53:01;101731.44;;;21.14;100.00
48668;BME280;34453;52.198;5.004;2022-08-21T09:55:34;101717.66;;;21.04;100.00
48668;BME280;34453;52.198;5.004;2022-08-21T09:58:30;101736.47;;;21.24;100.00
48668;BME280;34453;52.198;5.004;2022-08-21T10:01:01;101721.84;;;21.13;100.00
48668;BME280;34453;52.198;5.004;2022-08-21T10:03:28;101732.31;;;21.15;100.00
48668;BME280;34453;52.198;5.004;2022-08-21T10:08:27;101739.06;;;20.81;100.00
48668;BME280;34453;52.198;5.004;2022-08-21T10:10:56;101733.22;;;20.85;100.00
48668;BME280;34453;52.198;5.004;2022-08-21T10:19:02;101742.03;;;20.71;100.00
48668;BME280;34453;52.198;5.004;2022-08-21T10:21:51;101744.94;;;20.76;100.00
48668;BME280;34453;52.198;5.004;2022-08-21T10:24:31;101739.00;;;20.74;100.00
48668;BME280;34453;52.198;5.004;2022-08-21T10:30:08;101732.13;;;20.80;100.00
48668;BME280;34453;52.198;5.004;2022-08-21T10:35:33;101713.13;;;21.69;100.00
48668;BME280;34453;52.198;5.004;2022-08-21T10:46:30;101699.75;;;22.67;100.00
48668;BME280;34453;52.198;5.004;2022-08-21T10:57:13;101696.59;;;23.11;100.00
48668;BME280;34453;52.198;5.004;2022-08-21T11:00:20;101691.38;;;22.83;100.00
48668;BME280;34453;52.198;5.004;2022-08-21T11:05:58;101698.72;;;22.61;100.00
48668;BME280;34453;52.198;5.004;2022-08-21T11:08:39;101699.44;;;22.42;100.00
48668;BME280;34453;52.198;5.004;2022-08-21T11:11:16;101694.97;;;22.49;100.00
48668;BME280;34453;52.198;5.004;2022-08-21T11:13:54;101692.59;;;22.81;100.00
48668;BME280;34453;52.198;5.004;2022-08-21T11:16:37;101685.91;;;23.51;100.00
48668;BME280;34453;52.198;5.004;2022-08-21T11:21:51;101694.34;;;23.35;100.00
48668;BME280;34453;52.198;5.004;2022-08-21T11:29:58;101708.59;;;22.81;100.00
48668;BME280;34453;52.198;5.004;2022-08-21T11:35:30;101701.72;;;22.51;100.00
48668;BME280;34453;52.198;5.004;2022-08-21T11:38:22;101708.47;;;22.41;100.00
48668;BME280;34453;52.198;5.004;2022-08-21T11:46:20;101717.34;;;23.56;100.00
48668;BME280;34453;52.198;5.004;2022-08-21T11:51:38;101709.94;;;23.91;100.00
48668;BME280;34453;52.198;5.004;2022-08-21T11:56:58;101729.31;;;22.79;100.00
48668;BME280;34453;52.198;5.004;2022-08-21T11:59:57;101725.59;;;23.48;100.00
48668;BME280;34453;52.198;5.004;2022-08-21T12:02:29;101717.13;;;23.31;100.00
48668;BME280;34453;52.198;5.004;2022-08-21T12:05:03;101715.72;;;23.82;100.00
48668;BME280;34453;52.198;5.004;2022-08-21T12:07:40;101709.47;;;24.14;100.00
48668;BME280;34453;52.198;5.004;2022-08-21T12:10:12;101702.50;;;24.07;100.00
48668;BME280;34453;52.198;5.004;2022-08-21T12:12:40;101707.72;;;24.53;100.00
48668;BME280;34453;52.198;5.004;2022-08-21T12:17:59;101714.81;;;24.08;100.00
48668;BME280;34453;52.198;5.004;2022-08-21T12:20:43;101712.59;;;24.63;100.00
48668;BME280;34453;52.198;5.004;2022-08-21T12:25:42;101715.88;;;24.65;100.00
48668;BME280;34453;52.198;5.004;2022-08-21T12:28:11;101709.44;;;24.79;100.00
48668;BME280;34453;52.198;5.004;2022-08-21T12:30:41;101719.44;;;24.46;100.00
48668;BME280;34453;52.198;5.004;2022-08-21T12:35:43;101715.06;;;24.96;100.00
48668;BME280;34453;52.198;5.004;2022-08-21T12:38:28;101720.75;;;24.81;100.00
48668;BME280;34453;52.198;5.004;2022-08-21T12:41:17;101716.22;;;24.82;100.00
48668;BME280;34453;52.198;5.004;2022-08-21T12:43:51;101712.97;;;24.73;100.00
48668;BME280;34453;52.198;5.004;2022-08-21T12:46:32;101716.91;;;24.12;100.00
48668;BME280;34453;52.198;5.004;2022-08-21T12:52:24;101727.81;;;24.63;100.00
48668;BME280;34453;52.198;5.004;2022-08-21T12:54:53;101733.03;;;24.89;100.00
48668;BME280;34453;52.198;5.004;2022-08-21T12:57:24;101728.72;;;24.36;100.00
48668;BME280;34453;52.198;5.004;2022-08-21T12:59:59;101736.94;;;24.55;100.00
48668;BME280;34453;52.198;5.004;2022-08-21T13:02:34;101731.53;;;24.68;100.00
48668;BME280;34453;52.198;5.004;2022-08-21T13:05:04;101745.72;;;23.77;100.00
48668;BME280;34453;52.198;5.004;2022-08-21T13:07:33;101741.13;;;23.11;100.00
48668;BME280;34453;52.198;5.004;2022-08-21T13:10:26;101726.13;;;23.03;100.00
48668;BME280;34453;52.198;5.004;2022-08-21T13:12:58;101742.69;;;22.92;100.00
48668;BME280;34453;52.198;5.004;2022-08-21T13:15:35;101733.75;;;23.20;100.00
48668;BME280;34453;52.198;5.004;2022-08-21T13:18:04;101736.25;;;23.54;100.00
48668;BME280;34453;52.198;5.004;2022-08-21T13:20:37;101744.84;;;23.70;100.00
48668;BME280;34453;52.198;5.004;2022-08-21T13:23:20;101731.94;;;23.53;100.00
48668;BME280;34453;52.198;5.004;2022-08-21T13:25:48;101735.03;;;23.64;100.00
48668;BME280;34453;52.198;5.004;2022-08-21T13:28:13;101726.59;;;23.87;100.00
48668;BME280;34453;52.198;5.004;2022-08-21T13:30:43;101733.72;;;24.26;100.00
48668;BME280;34453;52.198;5.004;2022-08-21T13:33:10;101736.13;;;24.48;100.00
48668;BME280;34453;52.198;5.004;2022-08-21T13:36:39;101732.91;;;24.19;100.00
48668;BME280;34453;52.198;5.004;2022-08-21T13:38:55;101739.94;;;24.00;100.00
48668;BME280;34453;52.198;5.004;2022-08-21T13:41:27;101729.88;;;23.89;100.00
48668;BME280;34453;52.198;5.004;2022-08-21T13:44:01;101724.13;;;23.85;100.00
48668;BME280;34453;52.198;5.004;2022-08-21T13:46:30;101740.38;;;23.64;100.00
48668;BME280;34453;52.198;5.004;2022-08-21T13:48:58;101729.88;;;23.42;100.00
48668;BME280;34453;52.198;5.004;2022-08-21T13:51:25;101729.88;;;23.49;100.00
48668;BME280;34453;52.198;5.004;2022-08-21T13:53:52;101728.63;;;23.45;100.00
48668;BME280;34453;52.198;5.004;2022-08-21T13:56:27;101733.78;;;23.66;100.00
48668;BME280;34453;52.198;5.004;2022-08-21T13:58:54;101727.19;;;23.95;100.00
48668;BME280;34453;52.198;5.004;2022-08-21T14:03:53;101725.19;;;23.77;100.00
48668;BME280;34453;52.198;5.004;2022-08-21T14:06:26;101727.63;;;23.39;100.00
48668;BME280;34453;52.198;5.004;2022-08-21T14:08:58;101716.72;;;23.34;100.00
48668;BME280;34453;52.198;5.004;2022-08-21T14:11:26;101725.16;;;23.57;100.00